Time;durP1;ratioP1;P1;durP2;ratioP2;P2;SDS_P1;SDS_P2;PMS_P1;PMS_P2;Temp;Humidity;BMP_temperature;BMP_pressure;BME280_temperature;BME280_humidity;BME280_pressure;Samples;Min_cycle;Max_cycle;Signal;HPM_P1;HPM_P2
2022/02/14 00:02:26;;;;;;;2.22;2.03;;;4.40;99.90;;;;;;5014668;28;20056;-85
2022/02/14 00:04:53;;;;;;;5.93;2.22;;;4.40;99.90;;;;;;5014428;28;20042;-85
2022/02/14 00:07:20;;;;;;;4.13;2.60;;;4.30;99.90;;;;;;5014957;28;20081;-86
2022/02/14 00:09:46;;;;;;;4.75;2.53;;;4.10;99.90;;;;;;5013468;28;20410;-85
2022/02/14 00:12:14;;;;;;;5.18;2.53;;;4.00;99.90;;;;;;5013299;28;20383;-85
2022/02/14 00:14:41;;;;;;;4.25;2.60;;;3.60;99.90;;;;;;4996970;28;20137;-85
2022/02/14 00:17:08;;;;;;;5.72;2.28;;;3.30;99.90;;;;;;4997109;28;20137;-85
2022/02/14 00:19:35;;;;;;;4.25;2.40;;;2.90;99.90;;;;;;5014230;28;20064;-85
2022/02/14 00:22:02;;;;;;;5.32;2.65;;;2.50;99.90;;;;;;5013156;28;20389;-86
2022/02/14 00:24:29;;;;;;;5.93;3.42;;;2.20;99.90;;;;;;5014369;28;20052;-86
2022/02/14 00:26:55;;;;;;;6.95;2.40;;;1.90;99.90;;;;;;5012739;28;20418;-86
2022/02/14 00:29:23;;;;;;;7.93;3.25;;;1.50;99.90;;;;;;5013637;28;20137;-86
2022/02/14 00:31:49;;;;;;;5.93;2.83;;;1.30;99.90;;;;;;5012761;28;20054;-85
2022/02/14 00:34:17;;;;;;;7.35;2.83;;;1.20;99.90;;;;;;5012050;28;20060;-85
2022/02/14 00:36:44;;;;;;;6.32;2.58;;;1.00;99.90;;;;;;5013102;28;20045;-85
2022/02/14 00:39:10;;;;;;;4.00;2.38;;;0.80;99.90;;;;;;5012708;28;20056;-86
2022/02/14 00:41:37;;;;;;;5.00;2.60;;;0.70;99.90;;;;;;5012945;28;20048;-85
2022/02/14 00:44:04;;;;;;;5.32;2.45;;;0.70;99.90;;;;;;5014339;28;20046;-85
2022/02/14 00:46:32;;;;;;;2.72;2.50;;;0.70;99.90;;;;;;5012639;28;20092;-86
2022/02/14 00:48:59;;;;;;;3.92;2.38;;;0.60;99.90;;;;;;5012788;28;20053;-85
2022/02/14 00:51:26;;;;;;;2.78;2.55;;;0.60;99.90;;;;;;5012948;28;20057;-85
2022/02/14 00:53:52;;;;;;;4.38;2.78;;;0.60;99.90;;;;;;5013025;28;20072;-85
2022/02/14 00:56:19;;;;;;;10.07;2.63;;;0.60;99.90;;;;;;5012989;28;20077;-85
2022/02/14 00:58:46;;;;;;;9.43;2.92;;;0.70;99.90;;;;;;5012793;28;20054;-85
2022/02/14 01:01:13;;;;;;;6.00;2.28;;;0.70;99.90;;;;;;5012830;28;20060;-85
2022/02/14 01:03:40;;;;;;;6.63;2.50;;;0.50;99.90;;;;;;5013023;28;20116;-85
2022/02/14 01:06:07;;;;;;;5.70;2.78;;;0.40;99.90;;;;;;5012919;28;20060;-85
2022/02/14 01:08:34;;;;;;;3.35;2.30;;;0.30;99.90;;;;;;5012500;28;20410;-85
2022/02/14 01:11:01;;;;;;;5.00;2.72;;;0.10;99.90;;;;;;5012337;28;20056;-85
2022/02/14 01:13:27;;;;;;;2.63;2.30;;;0.00;99.90;;;;;;5013877;28;20052;-84
2022/02/14 01:15:54;;;;;;;6.28;2.92;;;0.00;99.90;;;;;;5013448;28;20048;-85
2022/02/14 01:18:21;;;;;;;4.60;2.38;;;-0.10;99.90;;;;;;5013774;28;20083;-85
2022/02/14 01:20:48;;;;;;;3.00;2.55;;;0.00;99.90;;;;;;5012328;28;20057;-85
2022/02/14 01:23:15;;;;;;;4.47;2.95;;;0.00;99.90;;;;;;5012473;28;20057;-85
2022/02/14 01:25:42;;;;;;;4.53;2.33;;;0.10;99.90;;;;;;5012406;28;20414;-85
2022/02/14 01:28:08;;;;;;;4.10;2.30;;;0.00;99.90;;;;;;5012947;28;20046;-85
2022/02/14 01:30:35;;;;;;;2.33;2.10;;;0.00;99.90;;;;;;5012393;28;20050;-85
2022/02/14 01:33:02;;;;;;;4.60;2.75;;;-0.10;99.90;;;;;;5012387;28;20052;-85
2022/02/14 01:35:29;;;;;;;6.35;2.70;;;-0.10;99.90;;;;;;5012275;28;20052;-85
2022/02/14 01:37:56;;;;;;;5.28;3.03;;;-0.20;99.90;;;;;;5012141;28;20049;-85
2022/02/14 01:40:23;;;;;;;2.92;2.08;;;-0.20;99.90;;;;;;5011935;28;20060;-85
2022/02/14 01:42:50;;;;;;;3.72;2.40;;;-0.20;99.90;;;;;;5012462;28;20041;-85
2022/02/14 01:45:17;;;;;;;3.40;2.45;;;-0.30;99.90;;;;;;5013595;28;20053;-85
2022/02/14 01:47:44;;;;;;;3.53;2.63;;;-0.30;99.90;;;;;;5013390;28;20136;-85
2022/02/14 01:50:13;;;;;;;3.35;2.60;;;-0.40;99.90;;;;;;5012242;28;20050;-85
2022/02/14 01:52:41;;;;;;;5.07;2.95;;;-0.40;99.90;;;;;;5012192;28;20136;-85
2022/02/14 01:55:13;;;;;;;3.58;2.70;;;-0.50;99.90;;;;;;4996106;28;20114;-85
2022/02/14 01:57:40;;;;;;;7.63;3.08;;;-0.40;99.90;;;;;;5012057;28;20502;-85
2022/02/14 02:00:10;;;;;;;5.15;3.03;;;-0.50;99.90;;;;;;5012051;28;20438;-85
2022/02/14 02:02:37;;;;;;;3.22;2.70;;;-0.50;99.90;;;;;;5013439;28;20057;-85
2022/02/14 02:05:04;;;;;;;3.45;3.13;;;-0.40;99.90;;;;;;5012147;28;20046;-85
2022/02/14 02:07:31;;;;;;;2.63;2.33;;;-0.50;99.90;;;;;;5013136;28;20050;-85
2022/02/14 02:09:59;;;;;;;3.63;2.55;;;-0.60;99.90;;;;;;5013087;28;20058;-85
2022/02/14 02:12:28;;;;;;;5.30;3.00;;;-0.60;99.90;;;;;;5012157;28;20046;-86
2022/02/14 02:15:01;;;;;;;6.03;2.90;;;-0.50;99.90;;;;;;5011875;28;20042;-85
2022/02/14 02:17:31;;;;;;;6.43;3.17;;;-0.50;99.90;;;;;;5012113;28;20406;-85
2022/02/14 02:19:58;;;;;;;3.13;2.67;;;-0.50;99.90;;;;;;5011976;28;20080;-85
2022/02/14 02:22:25;;;;;;;5.25;3.38;;;-0.50;99.90;;;;;;5011960;28;20052;-85
2022/02/14 02:24:54;;;;;;;4.95;2.65;;;-0.50;99.90;;;;;;5011873;28;20065;-85
2022/02/14 02:27:25;;;;;;;5.05;3.15;;;-0.50;99.90;;;;;;5012972;28;20505;-86
2022/02/14 02:30:00;;;;;;;5.20;3.10;;;-0.60;99.90;;;;;;5012282;28;20080;-86
2022/02/14 02:32:29;;;;;;;5.22;3.20;;;-0.60;99.90;;;;;;5012809;28;20515;-86
2022/02/14 02:34:56;;;;;;;7.07;3.28;;;-0.60;99.90;;;;;;5011561;28;20046;-86
2022/02/14 02:37:23;;;;;;;7.10;3.33;;;-0.70;99.90;;;;;;4995702;28;20057;-86
2022/02/14 02:39:50;;;;;;;6.90;3.33;;;-0.70;99.90;;;;;;5011875;28;20042;-86
2022/02/14 02:42:19;;;;;;;4.55;3.40;;;-0.70;99.90;;;;;;5013010;28;20530;-85
2022/02/14 02:44:46;;;;;;;4.43;2.88;;;-0.80;99.90;;;;;;5011536;28;20045;-86
2022/02/14 02:47:15;;;;;;;9.40;3.42;;;-0.80;99.90;;;;;;5012779;28;20140;-86
2022/02/14 02:49:43;;;;;;;6.90;3.42;;;-0.80;99.90;;;;;;5011565;28;20046;-86
2022/02/14 02:52:13;;;;;;;5.78;3.00;;;-0.80;99.90;;;;;;5012919;28;20058;-85
2022/02/14 02:54:43;;;;;;;4.28;3.25;;;-0.70;99.90;;;;;;5012817;28;20041;-86
2022/02/14 02:57:10;;;;;;;7.32;3.50;;;-0.80;99.90;;;;;;5012914;28;20058;-86
2022/02/14 02:59:42;;;;;;;6.65;3.72;;;-0.70;99.90;;;;;;5000673;28;20057;-86
2022/02/14 03:02:09;;;;;;;4.82;3.28;;;-0.70;99.90;;;;;;5015139;28;20054;-87
2022/02/14 03:04:35;;;;;;;6.35;3.40;;;-0.70;99.90;;;;;;5015381;28;20125;-86
2022/02/14 03:07:03;;;;;;;6.47;3.38;;;-0.80;99.90;;;;;;5015312;28;20058;-87
2022/02/14 03:09:30;;;;;;;6.25;3.10;;;-0.80;99.90;;;;;;5015903;28;20052;-87
2022/02/14 03:11:57;;;;;;;4.50;3.08;;;-0.80;99.90;;;;;;5015243;28;20137;-86
2022/02/14 03:14:25;;;;;;;4.70;3.28;;;-0.80;99.90;;;;;;5015911;28;20518;-87
2022/02/14 03:16:52;;;;;;;6.32;2.80;;;-0.80;99.90;;;;;;5016100;28;20049;-87
2022/02/14 03:19:19;;;;;;;4.32;2.90;;;-0.80;99.90;;;;;;5014949;28;20137;-87
2022/02/14 03:21:45;;;;;;;4.35;2.80;;;-0.80;99.90;;;;;;5015255;28;20052;-87
2022/02/14 03:24:13;;;;;;;4.35;2.95;;;-0.80;99.90;;;;;;5014910;28;20045;-87
2022/02/14 03:26:40;;;;;;;4.75;3.13;;;-0.80;99.90;;;;;;5014610;28;20494;-87
2022/02/14 03:29:07;;;;;;;5.97;2.72;;;-0.80;99.90;;;;;;4998397;28;20069;-87
2022/02/14 03:31:34;;;;;;;4.78;3.03;;;-0.80;99.90;;;;;;5015875;28;20046;-87
2022/02/14 03:34:01;;;;;;;6.10;2.53;;;-0.80;99.90;;;;;;5015668;28;20054;-87
2022/02/14 03:36:28;;;;;;;3.45;3.10;;;-0.80;99.90;;;;;;5014647;28;20053;-87
2022/02/14 03:38:55;;;;;;;9.13;3.10;;;-0.80;99.90;;;;;;5015607;28;20053;-87
2022/02/14 03:41:21;;;;;;;5.70;2.65;;;-0.70;99.90;;;;;;5015609;28;20046;-87
2022/02/14 03:43:48;;;;;;;4.57;2.70;;;-0.70;99.90;;;;;;5014336;28;20502;-87
2022/02/14 03:46:15;;;;;;;4.82;2.92;;;-0.70;99.90;;;;;;5014419;28;20435;-87
2022/02/14 03:48:42;;;;;;;9.70;6.07;;;-0.70;99.90;;;;;;5014332;28;20409;-87
2022/02/14 03:51:09;;;;;;;6.38;4.57;;;-0.70;99.90;;;;;;5014026;28;20049;-87
2022/02/14 03:53:36;;;;;;;5.18;3.90;;;-0.60;99.90;;;;;;5015309;28;20129;-86
2022/02/14 03:56:05;;;;;;;5.43;3.50;;;-0.50;99.90;;;;;;5014055;28;20050;-87
2022/02/14 03:58:35;;;;;;;6.97;5.22;;;-0.50;99.90;;;;;;5014254;28;20115;-87
2022/02/14 04:01:02;;;;;;;8.80;4.75;;;-0.50;99.90;;;;;;5014159;28;20133;-87
2022/02/14 04:03:29;;;;;;;3.95;3.53;;;-0.60;99.90;;;;;;5014023;28;20500;-87
2022/02/14 04:05:56;;;;;;;6.07;3.63;;;-0.50;99.90;;;;;;5014166;28;20085;-87
2022/02/14 04:08:24;;;;;;;4.15;2.80;;;-0.50;99.90;;;;;;5014724;28;20053;-87
2022/02/14 04:10:52;;;;;;;3.83;3.08;;;-0.60;99.90;;;;;;5014364;28;20125;-87
2022/02/14 04:13:19;;;;;;;5.38;2.72;;;-0.60;99.90;;;;;;5017143;28;20505;-87
2022/02/14 04:15:46;;;;;;;5.20;3.13;;;-0.60;99.90;;;;;;5015967;28;20052;-88
2022/02/14 04:18:13;;;;;;;5.22;3.80;;;-0.60;99.90;;;;;;5000545;28;20050;-88
2022/02/14 04:20:40;;;;;;;5.32;3.72;;;-0.60;99.90;;;;;;5013913;28;20060;-87
2022/02/14 04:23:06;;;;;;;5.85;4.10;;;-0.60;99.90;;;;;;5013888;28;20096;-88
2022/02/14 04:25:33;;;;;;;4.03;2.80;;;-0.60;99.90;;;;;;5013868;28;20053;-88
2022/02/14 04:28:00;;;;;;;4.60;2.83;;;-0.60;99.90;;;;;;5013379;28;20050;-88
2022/02/14 04:30:29;;;;;;;4.65;2.90;;;-0.60;99.90;;;;;;5013987;28;20073;-88
2022/02/14 04:32:59;;;;;;;3.53;2.80;;;-0.60;99.90;;;;;;5013319;28;20056;-87
2022/02/14 04:35:28;;;;;;;4.90;2.92;;;-0.70;99.90;;;;;;5014248;28;20053;-88
2022/02/14 04:37:59;;;;;;;2.92;2.65;;;-0.70;99.90;;;;;;5014656;28;20096;-88
2022/02/14 04:40:31;;;;;;;4.00;2.63;;;-0.80;99.90;;;;;;5013793;28;20498;-88
2022/02/14 04:42:59;;;;;;;4.00;2.72;;;-0.80;99.90;;;;;;5013383;28;20155;-87
2022/02/14 04:45:26;;;;;;;5.82;3.45;;;-0.80;99.90;;;;;;5012547;28;20060;-88
2022/02/14 04:47:55;;;;;;;4.15;2.60;;;-0.70;99.90;;;;;;5014181;28;20486;-88
2022/02/14 04:50:23;;;;;;;2.75;2.55;;;-0.70;99.90;;;;;;5013380;28;20088;-88
2022/02/14 04:52:50;;;;;;;6.88;3.15;;;-0.60;99.90;;;;;;5013380;28;20448;-88
2022/02/14 04:55:17;;;;;;;9.32;2.95;;;-0.70;99.90;;;;;;5013407;28;20513;-88
2022/02/14 04:57:44;;;;;;;3.58;2.53;;;-0.80;99.90;;;;;;5013206;28;20050;-87
2022/02/14 05:00:14;;;;;;;4.28;2.70;;;-0.80;99.90;;;;;;5013123;28;20080;-88
2022/02/14 05:02:41;;;;;;;4.57;2.92;;;-0.80;99.90;;;;;;5012988;28;20446;-88
2022/02/14 05:05:08;;;;;;;5.65;2.80;;;-0.90;99.90;;;;;;5012995;28;20088;-88
2022/02/14 05:07:35;;;;;;;3.65;3.03;;;-0.90;99.90;;;;;;5013261;28;20502;-88
2022/02/14 05:10:08;;;;;;;7.32;3.38;;;-0.90;99.90;;;;;;5012893;28;20512;-88
2022/02/14 05:12:35;;;;;;;11.68;3.55;;;-0.90;99.90;;;;;;5013574;28;20053;-88
2022/02/14 05:15:05;;;;;;;3.47;3.17;;;-1.00;99.90;;;;;;5013762;28;20077;-88
2022/02/14 05:17:32;;;;;;;4.45;3.15;;;-0.90;99.90;;;;;;5012801;28;20049;-87
2022/02/14 05:19:59;;;;;;;8.23;3.47;;;-1.00;99.90;;;;;;5012314;28;20056;-87
2022/02/14 05:22:26;;;;;;;4.93;3.45;;;-0.90;99.90;;;;;;5012936;28;20054;-88
2022/02/14 05:24:53;;;;;;;7.60;3.97;;;-0.80;99.90;;;;;;5012835;28;20136;-89
2022/02/14 05:27:20;;;;;;;10.15;4.68;;;-0.80;99.90;;;;;;5012845;28;20056;-88
2022/02/14 05:29:47;;;;;;;13.35;4.78;;;-0.70;99.90;;;;;;4996272;28;20050;-89
2022/02/14 05:32:14;;;;;;;22.35;5.22;;;-0.50;99.90;;;;;;5012575;28;20054;-88
2022/02/14 05:34:41;;;;;;;17.92;4.03;;;-0.30;99.90;;;;;;5012790;28;20458;-87
2022/02/14 05:37:10;;;;;;;8.50;4.50;;;-0.20;99.90;;;;;;4997003;28;20092;-88
2022/02/14 05:39:37;;;;;;;12.07;4.53;;;-0.10;99.90;;;;;;5012950;28;20058;-88
2022/02/14 05:42:04;;;;;;;5.35;4.07;;;0.00;99.90;;;;;;5012738;28;20053;-87
2022/02/14 05:44:31;;;;;;;5.57;3.28;;;0.10;99.90;;;;;;5013513;28;20169;-88
2022/02/14 05:46:58;;;;;;;5.63;4.20;;;0.30;99.90;;;;;;5012196;28;20046;-88
2022/02/14 05:49:24;;;;;;;2.65;2.40;;;0.50;99.90;;;;;;5013767;28;20057;-86
2022/02/14 05:51:51;;;;;;;3.75;2.30;;;0.60;99.90;;;;;;5013428;28;20046;-88
2022/02/14 05:54:18;;;;;;;3.60;2.50;;;0.70;99.90;;;;;;4996052;28;20152;-86
2022/02/14 05:56:45;;;;;;;5.57;2.65;;;0.90;99.90;;;;;;5011954;28;20049;-86
2022/02/14 05:59:12;;;;;;;5.28;2.72;;;0.90;99.90;;;;;;5012398;28;20525;-86
2022/02/14 06:01:38;;;;;;;3.65;2.60;;;1.00;99.90;;;;;;5012532;28;20471;-87
2022/02/14 06:04:08;;;;;;;5.97;2.67;;;1.20;99.90;;;;;;5012449;28;20053;-86
2022/02/14 06:06:35;;;;;;;3.17;2.47;;;1.30;99.90;;;;;;5013357;28;20056;-86
2022/02/14 06:09:02;;;;;;;7.32;2.78;;;1.40;99.90;;;;;;5012220;28;20129;-86
2022/02/14 06:11:29;;;;;;;6.75;2.67;;;1.30;99.90;;;;;;5013393;28;20081;-86
2022/02/14 06:13:56;;;;;;;6.50;3.67;;;1.30;99.90;;;;;;5012106;28;20060;-87
2022/02/14 06:16:23;;;;;;;7.07;3.45;;;1.30;99.90;;;;;;5012090;28;20046;-86
2022/02/14 06:18:49;;;;;;;9.52;3.67;;;1.30;99.90;;;;;;5012964;28;20142;-86
2022/02/14 06:21:16;;;;;;;9.65;4.15;;;1.10;99.90;;;;;;5012013;28;20501;-86
2022/02/14 06:23:43;;;;;;;13.82;5.95;;;1.10;99.90;;;;;;5012108;28;20096;-85
2022/02/14 06:26:10;;;;;;;6.50;4.25;;;0.90;99.90;;;;;;5012282;28;20045;-87
2022/02/14 06:28:38;;;;;;;3.70;2.90;;;0.80;99.90;;;;;;5012004;28;20077;-86
2022/02/14 06:31:06;;;;;;;6.35;2.75;;;0.90;99.90;;;;;;5013444;28;20060;-86
2022/02/14 06:33:33;;;;;;;3.10;2.50;;;1.00;99.90;;;;;;5015602;28;20614;-86
2022/02/14 06:36:00;;;;;;;4.35;3.17;;;1.00;99.90;;;;;;5016593;28;20041;-86
2022/02/14 06:38:27;;;;;;;6.82;3.38;;;0.90;99.90;;;;;;5016812;28;20052;-86
2022/02/14 06:40:54;;;;;;;5.50;3.03;;;0.90;99.90;;;;;;5017124;28;20065;-86
2022/02/14 06:43:21;;;;;;;3.72;2.95;;;0.90;99.90;;;;;;5016465;28;20046;-86
2022/02/14 06:45:48;;;;;;;8.88;4.43;;;0.90;99.90;;;;;;5016337;28;20046;-86
2022/02/14 06:48:14;;;;;;;7.03;4.38;;;0.80;99.90;;;;;;5015741;28;20050;-86
2022/02/14 06:50:43;;;;;;;8.55;4.18;;;0.70;99.90;;;;;;5016333;28;20085;-86
2022/02/14 06:53:11;;;;;;;7.88;4.50;;;0.50;99.90;;;;;;5016258;28;20061;-85
2022/02/14 06:55:38;;;;;;;9.10;4.85;;;0.50;99.90;;;;;;5016334;28;20434;-85
2022/02/14 06:58:04;;;;;;;5.68;3.63;;;0.40;99.90;;;;;;5015631;28;20050;-86
2022/02/14 07:00:31;;;;;;;5.80;3.13;;;0.30;99.90;;;;;;5015308;28;20128;-87
2022/02/14 07:02:58;;;;;;;7.82;4.35;;;0.40;99.90;;;;;;5015931;28;20054;-86
2022/02/14 07:05:25;;;;;;;5.53;3.38;;;0.40;99.90;;;;;;5015310;28;20054;-86
2022/02/14 07:07:52;;;;;;;5.57;2.95;;;0.40;99.90;;;;;;5016114;28;20060;-86
2022/02/14 07:10:20;;;;;;;4.88;3.03;;;0.50;99.90;;;;;;5020471;28;20140;-86
2022/02/14 07:12:47;;;;;;;5.10;3.25;;;0.50;99.90;;;;;;5015645;28;20050;-86
2022/02/14 07:15:14;;;;;;;7.00;4.22;;;0.60;99.90;;;;;;5014843;28;20128;-86
2022/02/14 07:17:42;;;;;;;4.20;2.97;;;0.60;99.90;;;;;;5014427;28;20455;-86
2022/02/14 07:20:09;;;;;;;5.35;2.95;;;0.70;99.90;;;;;;5015118;28;20079;-86
2022/02/14 07:22:35;;;;;;;8.48;4.07;;;0.90;99.90;;;;;;5016012;28;20052;-87
2022/02/14 07:25:02;;;;;;;4.15;2.50;;;1.00;99.90;;;;;;5015645;28;20058;-87
2022/02/14 07:27:33;;;;;;;6.38;3.90;;;1.20;99.90;;;;;;5014614;28;20402;-86
2022/02/14 07:30:02;;;;;;;3.03;2.38;;;1.40;99.90;;;;;;5015050;28;20443;-88
2022/02/14 07:32:29;;;;;;;5.97;3.30;;;1.50;99.90;;;;;;5014736;28;20078;-86
2022/02/14 07:34:56;;;;;;;6.07;3.15;;;1.90;99.90;;;;;;5014413;28;20100;-86
2022/02/14 07:37:24;;;;;;;8.10;4.45;;;2.00;99.90;;;;;;5014857;28;20529;-87
2022/02/14 07:39:51;;;;;;;6.32;4.88;;;1.90;99.90;;;;;;4998352;28;20053;-87
2022/02/14 07:42:18;;;;;;;16.83;7.45;;;1.70;99.90;;;;;;5014512;28;20417;-86
2022/02/14 07:44:45;;;;;;;14.27;8.65;;;1.60;99.90;;;;;;5014907;28;20376;-88
2022/02/14 07:47:12;;;;;;;13.10;5.63;;;1.40;99.90;;;;;;5014560;28;20405;-85
2022/02/14 07:49:39;;;;;;;10.52;5.75;;;1.50;99.90;;;;;;5014056;28;20054;-86
2022/02/14 07:52:06;;;;;;;10.82;6.40;;;1.30;99.90;;;;;;5015361;28;20050;-86
2022/02/14 07:54:34;;;;;;;10.68;5.43;;;1.20;99.90;;;;;;5014733;28;20050;-87
2022/02/14 07:57:06;;;;;;;10.55;5.68;;;1.00;99.90;;;;;;5015335;28;20046;-87
2022/02/14 07:59:33;;;;;;;8.50;5.20;;;0.90;99.90;;;;;;5013618;28;20566;-86
2022/02/14 08:02:00;;;;;;;21.50;6.05;;;0.80;99.90;;;;;;4997839;28;20056;-85
2022/02/14 08:04:27;;;;;;;30.67;7.10;;;0.70;99.90;;;;;;5013855;28;20230;-86
2022/02/14 08:06:54;;;;;;;19.90;5.97;;;0.60;99.90;;;;;;5013477;28;20048;-86
2022/02/14 08:09:20;;;;;;;14.23;6.53;;;0.60;99.90;;;;;;5013882;28;20105;-86
2022/02/14 08:11:47;;;;;;;15.70;7.20;;;0.50;99.90;;;;;;5013524;28;20054;-86
2022/02/14 08:14:20;;;;;;;10.40;6.53;;;0.50;99.90;;;;;;5013515;28;20050;-86
2022/02/14 08:16:47;;;;;;;19.58;7.43;;;0.50;99.90;;;;;;5013595;28;20502;-85
2022/02/14 08:19:13;;;;;;;10.75;5.90;;;0.50;99.90;;;;;;5013064;28;20532;-86
2022/02/14 08:21:41;;;;;;;10.35;4.70;;;0.60;99.90;;;;;;5012575;28;20137;-86
2022/02/14 08:24:08;;;;;;;9.75;4.60;;;0.60;99.90;;;;;;4996787;28;20064;-86
2022/02/14 08:26:35;;;;;;;7.13;4.75;;;0.80;99.90;;;;;;5014655;28;20046;-86
2022/02/14 08:29:02;;;;;;;7.00;3.83;;;0.90;99.90;;;;;;5013588;28;20061;-86
2022/02/14 08:31:29;;;;;;;9.07;3.80;;;1.10;99.90;;;;;;5013727;28;20069;-85
2022/02/14 08:33:59;;;;;;;12.80;3.00;;;1.80;99.90;;;;;;5014398;28;20056;-85
2022/02/14 08:36:27;;;;;;;21.55;3.38;;;3.20;99.90;;;;;;5013727;28;20477;-85
2022/02/14 08:38:54;;;;;;;15.40;3.53;;;4.90;99.90;;;;;;5014669;28;20072;-85
2022/02/14 08:41:23;;;;;;;11.35;3.17;;;6.40;99.90;;;;;;5016975;28;20129;-85
2022/02/14 08:43:51;;;;;;;18.35;3.40;;;8.00;99.90;;;;;;5016887;28;20077;-86
2022/02/14 08:46:20;;;;;;;4.75;2.40;;;8.70;94.10;;;;;;5024635;28;20050;-86
2022/02/14 08:48:48;;;;;;;9.23;2.95;;;9.90;85.20;;;;;;5000839;28;20069;-86
2022/02/14 08:51:15;;;;;;;5.93;2.35;;;10.20;83.40;;;;;;5014927;28;20092;-87
2022/02/14 08:53:42;;;;;;;4.40;2.15;;;10.80;76.10;;;;;;5015104;28;20046;-86
2022/02/14 08:56:09;;;;;;;3.28;2.20;;;11.70;74.10;;;;;;5013179;28;20068;-88
2022/02/14 08:58:37;;;;;;;5.97;2.40;;;11.90;67.90;;;;;;5013983;28;20061;-86
2022/02/14 09:01:04;;;;;;;2.78;2.20;;;12.10;68.80;;;;;;5014778;28;20045;-86
2022/02/14 09:03:33;;;;;;;6.65;1.98;;;12.10;66.20;;;;;;5013560;28;20093;-87
2022/02/14 09:06:00;;;;;;;6.07;2.50;;;12.50;64.00;;;;;;5013114;28;20054;-85
2022/02/14 09:08:27;;;;;;;2.47;2.00;;;13.20;65.10;;;;;;5014069;28;20053;-86
2022/02/14 09:11:00;;;;;;;3.95;2.15;;;13.80;62.60;;;;;;5012935;28;20053;-85
2022/02/14 09:13:31;;;;;;;5.30;2.08;;;14.90;60.80;;;;;;5012304;28;20451;-87
2022/02/14 09:15:59;;;;;;;4.38;2.40;;;15.40;56.50;;;;;;5013862;28;20133;-86
2022/02/14 09:18:26;;;;;;;4.38;1.90;;;15.90;55.70;;;;;;5012241;28;20049;-86
2022/02/14 09:20:57;;;;;;;3.30;2.40;;;16.80;54.30;;;;;;5013916;28;20054;-86
2022/02/14 09:23:24;;;;;;;2.40;2.20;;;17.20;53.10;;;;;;4996041;28;20137;-87
2022/02/14 09:25:51;;;;;;;16.15;3.03;;;17.10;51.40;;;;;;4996161;28;20417;-86
2022/02/14 09:28:18;;;;;;;11.90;3.15;;;17.40;52.00;;;;;;5013146;28;20046;-86
2022/02/14 09:30:45;;;;;;;4.38;2.30;;;17.40;51.50;;;;;;4996192;28;20088;-86
2022/02/14 09:33:12;;;;;;;3.58;2.08;;;18.50;50.80;;;;;;5012578;28;20413;-85
2022/02/14 09:35:39;;;;;;;14.43;2.53;;;19.30;48.10;;;;;;5012986;28;20049;-86
2022/02/14 09:38:06;;;;;;;4.82;2.25;;;18.90;47.30;;;;;;5011901;28;20128;-86
2022/02/14 09:40:34;;;;;;;6.00;1.98;;;18.70;47.40;;;;;;5013628;28;20410;-87
2022/02/14 09:43:11;;;;;;;3.90;1.85;;;17.90;49.00;;;;;;5012765;28;20088;-86
2022/02/14 09:45:39;;;;;;;5.82;2.88;;;18.30;48.50;;;;;;5011874;28;20141;-87
2022/02/14 09:48:08;;;;;;;5.63;2.72;;;18.60;48.00;;;;;;5012161;28;20048;-86
2022/02/14 09:50:37;;;;;;;4.88;2.60;;;18.70;47.40;;;;;;5012306;28;20088;-87
2022/02/14 09:53:07;;;;;;;2.67;1.80;;;17.70;47.40;;;;;;5012338;28;20081;-86
2022/02/14 09:55:41;;;;;;;11.52;2.28;;;16.30;49.50;;;;;;5013537;28;20058;-86
2022/02/14 09:58:08;;;;;;;4.20;2.28;;;15.70;51.70;;;;;;5013555;28;20052;-87
2022/02/14 10:00:36;;;;;;;7.20;2.60;;;14.90;51.80;;;;;;5013199;28;20057;-86
2022/02/14 10:03:11;;;;;;;3.45;2.45;;;14.20;53.70;;;;;;4995780;28;20053;-86
2022/02/14 10:05:47;;;;;;;4.15;2.28;;;13.90;54.90;;;;;;5012135;28;20046;-87
2022/02/14 10:08:19;;;;;;;2.75;2.05;;;13.90;54.50;;;;;;5016292;28;20045;-89
2022/02/14 10:10:49;;;;;;;5.30;2.42;;;13.90;55.20;;;;;;5016224;28;20487;-86
2022/02/14 10:13:31;;;;;;;2.15;2.03;;;14.10;54.80;;;;;;5017108;28;20045;-86
2022/02/14 10:15:58;;;;;;;6.10;2.17;;;14.90;54.50;;;;;;5016037;28;20132;-86
2022/02/14 10:18:31;;;;;;;4.10;1.98;;;15.80;51.90;;;;;;5015903;28;20394;-87
2022/02/14 10:21:25;;;;;;;20.23;3.47;;;16.40;51.50;;;;;;5002356;28;20054;-86
2022/02/14 10:23:59;;;;;;;5.40;2.10;;;17.30;51.00;;;;;;4999541;28;20089;-86
2022/02/14 10:26:32;;;;;;;11.68;3.00;;;18.30;49.20;;;;;;4999643;28;20076;-86
2022/02/14 10:29:08;;;;;;;6.75;2.13;;;18.20;48.60;;;;;;5015923;28;20132;-87
2022/02/14 10:31:55;;;;;;;5.25;2.45;;;18.80;47.80;;;;;;5016901;28;20046;-87
2022/02/14 10:34:31;;;;;;;2.92;1.95;;;18.60;46.90;;;;;;5012367;28;20054;-88
2022/02/14 10:36:58;;;;;;;2.22;1.95;;;17.70;47.60;;;;;;5016954;28;20104;-87
2022/02/14 10:39:26;;;;;;;10.25;2.08;;;16.10;49.60;;;;;;5015862;28;20046;-86
2022/02/14 10:41:58;;;;;;;3.35;1.75;;;15.00;52.60;;;;;;5016760;28;20085;-87
2022/02/14 10:47:19;;;;;;;3.30;2.20;;;13.50;55.50;;;;;;5016789;28;20049;-86
2022/02/14 10:49:57;;;;;;;5.80;2.67;;;13.20;56.60;;;;;;5015643;28;20049;-86
2022/02/14 10:52:24;;;;;;;4.45;2.25;;;13.90;56.00;;;;;;5015300;28;20050;-86
2022/02/14 10:54:53;;;;;;;4.65;2.20;;;15.40;55.50;;;;;;5014703;28;20057;-86
2022/02/14 10:57:29;;;;;;;2.47;2.13;;;16.30;53.10;;;;;;5015383;28;20057;-86
2022/02/14 11:00:05;;;;;;;10.63;2.30;;;17.20;51.10;;;;;;5014608;28;20073;-87
2022/02/14 11:02:32;;;;;;;44.72;4.95;;;17.70;50.00;;;;;;5015161;28;20127;-87
2022/02/14 11:04:59;;;;;;;3.53;2.28;;;17.70;49.60;;;;;;5015824;28;20046;-86
2022/02/14 11:07:28;;;;;;;3.38;2.00;;;17.80;48.80;;;;;;5015010;28;20053;-85
2022/02/14 11:09:57;;;;;;;4.47;2.08;;;18.10;49.40;;;;;;5014893;28;20125;-88
2022/02/14 11:12:29;;;;;;;4.03;2.20;;;18.70;48.50;;;;;;5014754;28;20521;-86
2022/02/14 11:14:57;;;;;;;5.47;1.90;;;18.60;47.60;;;;;;5015746;28;20060;-87
2022/02/14 11:17:30;;;;;;;6.00;1.77;;;19.00;48.30;;;;;;5014673;28;20065;-86
2022/02/14 11:20:03;;;;;;;3.22;2.20;;;20.10;47.20;;;;;;5015281;28;20056;-86
2022/02/14 11:22:40;;;;;;;7.75;2.78;;;20.50;45.40;;;;;;5015786;28;20418;-86
2022/02/14 11:25:12;;;;;;;6.95;2.13;;;20.60;44.80;;;;;;5000797;28;20487;-84
2022/02/14 11:27:49;;;;;;;7.68;2.13;;;21.30;44.50;;;;;;5017327;28;20045;-84
2022/02/14 11:30:17;;;;;;;9.57;2.65;;;21.80;44.50;;;;;;5035345;28;20049;-86
2022/02/14 11:33:06;;;;;;;14.82;2.88;;;23.20;43.40;;;;;;5017975;28;20204;-85
2022/02/14 11:35:32;;;;;;;3.40;2.13;;;23.40;41.70;;;;;;5017957;28;20056;-87
2022/02/14 11:38:04;;;;;;;3.22;2.00;;;22.50;41.20;;;;;;5018455;28;20041;-85
2022/02/14 11:40:39;;;;;;;4.38;2.00;;;21.60;42.50;;;;;;5035721;28;20061;-85
2022/02/14 11:43:19;;;;;;;11.40;2.22;;;21.80;43.20;;;;;;5018176;28;20042;-84
2022/02/14 11:46:13;;;;;;;9.80;2.05;;;22.40;42.50;;;;;;5035332;28;20111;-85
2022/02/14 11:48:40;;;;;;;2.55;1.85;;;21.60;43.40;;;;;;5018023;28;20045;-85
2022/02/14 11:51:10;;;;;;;4.18;1.90;;;21.60;43.50;;;;;;5018121;28;20053;-85
2022/02/14 11:53:42;;;;;;;3.50;2.20;;;21.10;43.60;;;;;;5021947;28;20132;-85
2022/02/14 11:56:21;;;;;;;5.03;2.50;;;20.70;44.70;;;;;;5020126;28;20073;-86
2022/02/14 11:59:07;;;;;;;6.32;2.60;;;19.70;44.50;;;;;;5017760;28;20109;-84
2022/02/14 12:01:55;;;;;;;6.55;2.65;;;19.00;46.30;;;;;;5017659;28;20088;-85
2022/02/14 12:04:37;;;;;;;4.35;2.63;;;19.20;47.50;;;;;;5035181;28;20049;-86
2022/02/14 12:07:20;;;;;;;5.05;2.28;;;19.10;46.90;;;;;;5018144;28;20492;-85
2022/02/14 12:09:59;;;;;;;12.18;2.58;;;19.10;47.00;;;;;;5017176;28;20470;-84
2022/02/14 12:12:56;;;;;;;4.63;2.88;;;18.70;47.10;;;;;;5017432;28;20482;-85
2022/02/14 12:21:06;;;;;;;3.92;1.67;;;18.50;48.20;;;;;;5034548;28;20056;-86
2022/02/14 12:23:56;;;;;;;2.50;2.35;;;19.10;48.40;;;;;;5019903;28;20050;-85
2022/02/14 12:26:26;;;;;;;4.07;2.20;;;19.20;46.90;;;;;;5034276;28;20046;-85
2022/02/14 12:31:51;;;;;;;6.97;2.47;;;18.70;47.60;;;;;;5034565;28;20056;-85
2022/02/14 12:34:23;;;;;;;5.68;2.08;;;19.00;48.00;;;;;;5017029;28;20061;-85
2022/02/14 12:36:57;;;;;;;8.38;2.20;;;18.60;47.70;;;;;;5000057;28;20048;-85
2022/02/14 12:39:32;;;;;;;5.32;2.10;;;18.60;48.40;;;;;;5016826;28;20136;-85
2022/02/14 12:42:12;;;;;;;3.30;1.88;;;18.20;48.70;;;;;;5034252;28;20429;-85
2022/02/14 12:44:43;;;;;;;5.38;1.98;;;18.10;50.00;;;;;;5033970;28;20132;-85
2022/02/14 12:47:11;;;;;;;5.05;1.63;;;17.90;50.00;;;;;;5016663;28;20413;-84
2022/02/14 12:49:42;;;;;;;8.85;2.25;;;16.60;50.20;;;;;;5016523;28;20053;-84
2022/02/14 12:52:12;;;;;;;5.38;2.05;;;16.60;54.50;;;;;;5016794;28;20052;-85
2022/02/14 12:54:54;;;;;;;4.45;1.90;;;16.50;52.50;;;;;;5033943;28;20132;-85
2022/02/14 12:57:35;;;;;;;9.38;2.42;;;16.40;52.20;;;;;;5016411;28;20433;-85
2022/02/14 13:00:04;;;;;;;6.80;1.92;;;15.90;53.60;;;;;;5016387;28;20053;-85
2022/02/14 13:02:31;;;;;;;5.57;1.95;;;15.90;54.40;;;;;;5016240;28;20051;-85
2022/02/14 13:04:57;;;;;;;8.00;2.40;;;15.70;54.40;;;;;;5016252;28;20053;-85
2022/02/14 13:07:27;;;;;;;6.57;2.42;;;15.70;54.30;;;;;;5016555;28;20060;-85
2022/02/14 13:10:03;;;;;;;3.72;2.20;;;15.00;55.40;;;;;;5016497;28;20473;-84